Minusinsk, Russia
Current Conditions -  °F | °C
As of 4:00 AM on Monday 24 Nov 2014 (Local Time) from UNAA Reporting Station
Overcast Overcast  
Wind Chill: 19°   Ceiling: 7300
Heat Index: 25°   Visibility: 6mi
Dew Point: 14°   Wind: 4mph
Humidity: 64%   Direction: NA
Pressure: 29.65"   Gusts: NA
Location:  53.71°N, 91.69°E
Report Text: UNAA 232100Z VRB02MPS 9999 SCT030CB OVC073 M04/M10 Q1004 NOSIGRMK QFE731 20190055
Loading
Personal Weather Stations






























Interactive Weather Map New forecast layout! Learn more

10-Day Weather Forecast

Advertisements
Track Severe Weather on mobile